createdAt,value
2018-03-21T00:01:29.261Z,2.10
2018-03-21T00:03:55.493Z,2.53
2018-03-21T00:06:21.758Z,2.40
2018-03-21T00:08:47.984Z,2.90
2018-03-21T00:11:14.181Z,2.77
2018-03-21T00:13:40.399Z,2.40
2018-03-21T00:16:07.416Z,2.80
2018-03-21T00:18:33.608Z,2.57
2018-03-21T00:20:59.826Z,2.80
2018-03-21T00:23:26.013Z,2.80
2018-03-21T00:25:52.233Z,2.20
2018-03-21T00:28:18.446Z,2.80
2018-03-21T00:30:44.664Z,2.40
2018-03-21T00:33:10.860Z,2.77
2018-03-21T00:35:37.084Z,2.67
2018-03-21T00:38:03.305Z,2.17
2018-03-21T00:40:30.282Z,2.40
2018-03-21T00:42:56.821Z,2.50
2018-03-21T00:45:23.096Z,2.17
2018-03-21T00:47:49.301Z,2.50
2018-03-21T00:50:15.511Z,2.30
2018-03-21T00:52:41.713Z,2.20
2018-03-21T00:55:08.001Z,3.03
2018-03-21T00:57:34.198Z,2.57
2018-03-21T01:00:00.426Z,2.80
2018-03-21T01:02:26.624Z,3.23
2018-03-21T01:04:52.849Z,2.10
2018-03-21T01:07:19.790Z,2.47
2018-03-21T01:09:46.736Z,2.60
2018-03-21T01:12:13.700Z,2.47
2018-03-21T01:14:39.917Z,2.10
2018-03-21T01:17:06.867Z,2.53
2018-03-21T01:19:33.117Z,2.20
2018-03-21T01:21:59.311Z,2.30
2018-03-21T01:24:26.281Z,2.90
2018-03-21T01:26:52.560Z,2.47
2018-03-21T01:29:19.083Z,2.50
2018-03-21T01:31:45.300Z,2.30
2018-03-21T01:34:11.492Z,2.20
2018-03-21T01:36:38.481Z,2.70
2018-03-21T01:39:04.696Z,2.67
2018-03-21T01:41:30.912Z,2.13
2018-03-21T01:43:57.105Z,3.07
2018-03-21T01:46:23.324Z,2.23
2018-03-21T01:48:51.000Z,2.20
2018-03-21T01:51:17.961Z,2.70
2018-03-21T01:53:44.920Z,2.50
2018-03-21T01:56:11.137Z,2.37
2018-03-21T01:58:38.068Z,2.60
2018-03-21T02:01:05.033Z,2.03
2018-03-21T02:03:32.035Z,2.67
2018-03-21T02:05:58.265Z,2.30
2018-03-21T02:08:24.462Z,3.30
2018-03-21T02:10:50.684Z,2.70
2018-03-21T02:13:16.868Z,2.47
2018-03-21T02:15:43.486Z,2.40
2018-03-21T02:18:10.330Z,1.70
2018-03-21T02:20:37.623Z,2.20
2018-03-21T02:23:04.323Z,2.17
2018-03-21T02:25:30.962Z,2.70
2018-03-21T02:27:58.421Z,2.50
2018-03-21T02:30:24.636Z,2.33
2018-03-21T02:32:50.852Z,2.43
2018-03-21T02:35:17.092Z,2.73
2018-03-21T02:37:43.308Z,3.13
2018-03-21T02:40:09.503Z,2.63
2018-03-21T02:42:36.464Z,2.03
2018-03-21T02:45:02.722Z,2.27
2018-03-21T02:47:29.253Z,2.60
2018-03-21T02:49:55.461Z,2.30
2018-03-21T02:52:21.676Z,2.70
2018-03-21T02:54:48.657Z,2.10
2018-03-21T02:57:14.885Z,2.10
2018-03-21T02:59:41.069Z,2.67
2018-03-21T03:02:08.057Z,2.23
2018-03-21T03:04:34.269Z,2.60
2018-03-21T03:07:00.485Z,3.90
2018-03-21T03:09:27.424Z,2.80
2018-03-21T03:11:54.404Z,2.55
2018-03-21T03:14:20.641Z,2.83
2018-03-21T03:16:46.996Z,2.70
2018-03-21T03:19:13.203Z,2.60
2018-03-21T03:21:40.911Z,2.90
2018-03-21T03:24:07.136Z,2.43
2018-03-21T03:26:33.464Z,2.70
2018-03-21T03:28:59.691Z,2.57
2018-03-21T03:31:25.924Z,2.30
2018-03-21T03:33:52.253Z,2.70
2018-03-21T03:36:18.460Z,3.60
2018-03-21T03:38:44.661Z,2.60
2018-03-21T03:41:10.881Z,2.45
2018-03-21T03:43:37.089Z,3.17
2018-03-21T03:46:04.056Z,3.05
2018-03-21T03:48:30.243Z,2.93
2018-03-21T03:50:56.460Z,3.00
2018-03-21T03:53:22.665Z,3.00
2018-03-21T03:55:48.925Z,2.50
2018-03-21T03:58:15.128Z,4.17
2018-03-21T04:00:41.412Z,3.10
2018-03-21T04:03:08.352Z,2.50
2018-03-21T04:05:35.317Z,2.50
2018-03-21T04:08:01.523Z,4.03
2018-03-21T04:10:28.484Z,2.70
2018-03-21T04:12:55.412Z,3.50
2018-03-21T04:15:21.821Z,2.43
2018-03-21T04:17:48.020Z,3.07
2018-03-21T04:20:14.241Z,3.53
2018-03-21T04:22:40.480Z,2.80
2018-03-21T04:25:06.681Z,3.67
2018-03-21T04:27:32.929Z,3.40
2018-03-21T04:29:59.136Z,3.30
2018-03-21T04:32:26.096Z,3.47
2018-03-21T04:34:52.284Z,3.90
2018-03-21T04:37:18.508Z,3.60
2018-03-21T04:39:45.473Z,3.37
2018-03-21T04:42:12.459Z,3.03
2018-03-21T04:44:38.667Z,2.60
2018-03-21T04:47:04.904Z,3.80
2018-03-21T04:49:31.235Z,2.87
2018-03-21T04:51:57.472Z,3.97
2018-03-21T04:54:23.660Z,2.70
2018-03-21T04:56:49.876Z,2.87
2018-03-21T04:59:16.838Z,2.83
2018-03-21T05:01:43.061Z,3.10
2018-03-21T05:04:10.036Z,3.50
2018-03-21T05:06:36.272Z,3.10
2018-03-21T05:09:02.503Z,2.23
2018-03-21T05:11:28.732Z,2.90
2018-03-21T05:13:54.920Z,3.20
2018-03-21T05:16:21.337Z,3.07
2018-03-21T05:18:47.524Z,3.57
2018-03-21T05:21:13.716Z,3.40
2018-03-21T05:23:39.926Z,3.20
2018-03-21T05:26:06.166Z,3.93
2018-03-21T05:28:32.384Z,4.10
2018-03-21T05:30:58.992Z,3.70
2018-03-21T05:33:25.181Z,3.20
2018-03-21T05:35:52.128Z,3.50
2018-03-21T05:38:19.088Z,3.57
2018-03-21T05:40:45.284Z,3.00
2018-03-21T05:43:11.560Z,3.70
2018-03-21T05:45:38.461Z,3.73
2018-03-21T05:48:04.690Z,3.00
2018-03-21T05:50:32.264Z,3.60
2018-03-21T05:52:59.223Z,3.50
2018-03-21T05:55:26.180Z,4.63
2018-03-21T05:57:52.375Z,3.20
2018-03-21T06:00:19.359Z,3.93
2018-03-21T06:02:45.581Z,2.77
2018-03-21T06:05:11.959Z,3.10
2018-03-21T06:07:38.157Z,2.60
2018-03-21T06:10:04.352Z,3.00
2018-03-21T06:12:31.304Z,3.60
2018-03-21T06:14:58.236Z,2.77
2018-03-21T06:17:25.201Z,2.60
2018-03-21T06:19:52.137Z,3.23
2018-03-21T06:22:19.081Z,2.53
2018-03-21T06:24:46.009Z,2.27
2018-03-21T06:27:12.657Z,3.10
2018-03-21T06:29:39.596Z,2.70
2018-03-21T06:32:05.812Z,1.90
2018-03-21T06:34:32.003Z,1.90
2018-03-21T06:36:58.225Z,2.83
2018-03-21T06:39:24.421Z,2.30
2018-03-21T06:41:51.408Z,1.73
2018-03-21T06:44:17.605Z,1.77
2018-03-21T06:46:44.544Z,2.07
2018-03-21T06:49:11.496Z,1.63
2018-03-21T06:51:38.433Z,1.53
2018-03-21T06:54:05.465Z,2.27
2018-03-21T06:56:31.668Z,1.70
2018-03-21T06:58:57.884Z,2.00
2018-03-21T07:01:24.078Z,1.60
2018-03-21T07:03:51.039Z,2.67
2018-03-21T07:06:17.233Z,1.70
2018-03-21T07:08:43.448Z,1.60
2018-03-21T07:11:09.701Z,1.77
2018-03-21T07:13:49.096Z,1.97
2018-03-21T07:16:27.734Z,1.70
2018-03-21T07:18:53.958Z,1.80
2018-03-21T07:21:20.153Z,2.13
2018-03-21T07:23:46.373Z,2.30
2018-03-21T07:26:12.579Z,2.00
2018-03-21T07:28:39.993Z,2.33
2018-03-21T07:31:06.218Z,2.17
2018-03-21T07:33:32.421Z,2.27
2018-03-21T07:35:58.640Z,2.83
2018-03-21T07:38:24.832Z,2.30
2018-03-21T07:40:51.056Z,2.77
2018-03-21T07:43:17.267Z,2.20
2018-03-21T07:45:43.488Z,2.13
2018-03-21T07:48:09.764Z,1.90
2018-03-21T07:50:36.726Z,2.40
2018-03-21T07:53:02.936Z,2.70
2018-03-21T07:55:29.888Z,3.00
2018-03-21T07:57:56.812Z,1.90
2018-03-21T08:00:23.087Z,1.87
2018-03-21T08:02:49.281Z,2.40
2018-03-21T08:05:16.237Z,2.10
2018-03-21T08:07:43.175Z,2.37
2018-03-21T08:10:10.136Z,2.17
2018-03-21T08:12:37.320Z,2.20
2018-03-21T08:15:03.542Z,2.10
2018-03-21T08:17:29.737Z,2.37
2018-03-21T08:19:56.729Z,2.03
2018-03-21T08:22:22.947Z,2.50
2018-03-21T08:24:49.167Z,2.27
2018-03-21T08:27:15.396Z,2.10
2018-03-21T08:29:41.685Z,2.03
2018-03-21T08:32:07.948Z,2.50
2018-03-21T08:34:34.892Z,3.00
2018-03-21T08:37:01.079Z,2.50
2018-03-21T08:39:27.301Z,2.50
2018-03-21T08:41:54.233Z,2.73
2018-03-21T08:44:20.450Z,3.30
2018-03-21T08:46:46.640Z,2.90
2018-03-21T08:49:13.601Z,2.87
2018-03-21T08:51:39.824Z,2.73
2018-03-21T08:54:06.036Z,3.33
2018-03-21T08:56:32.964Z,3.70
2018-03-21T08:58:59.184Z,3.57
2018-03-21T09:01:25.412Z,3.70
2018-03-21T09:03:51.640Z,3.70
2018-03-21T09:06:17.833Z,4.10
2018-03-21T09:08:44.065Z,3.43
2018-03-21T09:11:10.256Z,4.00
2018-03-21T09:13:37.181Z,4.40
2018-03-21T09:16:03.394Z,4.97
2018-03-21T09:18:29.581Z,4.77
2018-03-21T09:21:02.904Z,4.83
2018-03-21T09:23:29.106Z,4.30
2018-03-21T09:25:55.388Z,4.40
2018-03-21T09:28:21.604Z,4.07
2018-03-21T09:30:47.825Z,5.10
2018-03-21T09:33:14.036Z,5.80
2018-03-21T09:35:40.249Z,5.40
2018-03-21T09:38:06.441Z,4.60
2018-03-21T09:40:33.402Z,4.67
2018-03-21T09:43:00.337Z,4.00
2018-03-21T09:45:33.588Z,4.53
2018-03-21T09:47:59.773Z,3.70
2018-03-21T09:50:26.729Z,4.80
2018-03-21T09:52:53.656Z,3.70
2018-03-21T09:55:19.938Z,4.07
2018-03-21T09:57:46.114Z,4.10
2018-03-21T10:00:13.061Z,4.47
2018-03-21T10:02:40.020Z,3.80
2018-03-21T10:05:06.953Z,3.50
2018-03-21T10:07:33.903Z,3.90
2018-03-21T10:10:00.117Z,3.30
2018-03-21T10:12:27.092Z,3.37
2018-03-21T10:14:54.123Z,3.23
2018-03-21T10:17:21.084Z,2.90
2018-03-21T10:19:48.012Z,3.47
2018-03-21T10:22:14.984Z,3.37
2018-03-21T10:24:41.184Z,3.03
2018-03-21T10:27:08.199Z,3.00
2018-03-21T10:29:34.384Z,3.80
2018-03-21T10:32:00.584Z,3.20
2018-03-21T10:34:26.800Z,2.13
2018-03-21T10:36:53.006Z,3.10
2018-03-21T10:39:19.233Z,3.60
2018-03-21T10:41:45.429Z,3.50
2018-03-21T10:44:12.409Z,2.80
2018-03-21T10:46:38.600Z,2.43
2018-03-21T10:49:04.820Z,2.60
2018-03-21T10:51:31.760Z,2.50
2018-03-21T10:53:58.712Z,2.30
2018-03-21T10:56:25.648Z,2.77
2018-03-21T10:58:52.624Z,2.33
2018-03-21T11:01:24.852Z,3.80
2018-03-21T11:03:55.000Z,2.50
2018-03-21T11:06:21.221Z,2.80
2018-03-21T11:08:48.195Z,2.47
2018-03-21T11:11:14.420Z,2.13
2018-03-21T11:13:40.627Z,2.40
2018-03-21T11:16:07.644Z,2.30
2018-03-21T11:18:33.828Z,2.43
2018-03-21T11:21:00.046Z,2.20
2018-03-21T11:23:26.983Z,2.10
2018-03-21T11:25:54.006Z,2.33
2018-03-21T11:28:20.224Z,2.40
2018-03-21T11:30:46.445Z,2.10
2018-03-21T11:33:12.641Z,1.97
2018-03-21T11:35:39.009Z,2.37
2018-03-21T11:38:05.201Z,2.37
2018-03-21T11:40:31.409Z,2.27
2018-03-21T11:42:58.372Z,2.37
2018-03-21T11:45:24.601Z,2.30
2018-03-21T11:47:50.820Z,2.80
2018-03-21T11:50:17.381Z,2.53
2018-03-21T11:52:43.616Z,2.57
2018-03-21T11:55:10.147Z,2.10
2018-03-21T11:57:36.376Z,2.17
2018-03-21T12:00:02.572Z,3.10
2018-03-21T12:02:29.532Z,2.87
2018-03-21T12:04:55.715Z,2.33
2018-03-21T12:07:21.936Z,2.33
2018-03-21T12:09:48.132Z,2.47
2018-03-21T12:12:14.398Z,2.00
2018-03-21T12:14:40.616Z,1.87
2018-03-21T12:17:06.850Z,2.33
2018-03-21T12:19:33.041Z,1.93
2018-03-21T12:21:59.257Z,2.10
2018-03-21T12:24:26.193Z,2.00
2018-03-21T12:26:53.156Z,1.90
2018-03-21T12:29:19.365Z,2.20
2018-03-21T12:31:46.325Z,1.30
2018-03-21T12:34:12.514Z,2.40
2018-03-21T12:36:38.736Z,1.50
2018-03-21T12:39:04.969Z,2.30
2018-03-21T12:41:31.179Z,2.20
2018-03-21T12:43:57.360Z,2.00
2018-03-21T12:46:24.317Z,2.23
2018-03-21T12:48:50.581Z,2.63
2018-03-21T12:51:16.773Z,1.90
2018-03-21T12:53:43.017Z,1.87
2018-03-21T12:56:09.219Z,1.93
2018-03-21T12:58:35.516Z,1.87
2018-03-21T13:01:01.783Z,2.40
2018-03-21T13:03:28.752Z,2.50
2018-03-21T13:05:54.944Z,2.10
2018-03-21T13:08:21.912Z,2.23
2018-03-21T13:10:48.841Z,2.37
2018-03-21T13:13:15.808Z,2.53
2018-03-21T13:15:42.069Z,2.50
2018-03-21T13:18:08.280Z,2.10
2018-03-21T13:20:34.475Z,2.37
2018-03-21T13:23:01.435Z,2.63
2018-03-21T13:25:28.384Z,2.80
2018-03-21T13:27:54.604Z,2.67
2018-03-21T13:30:21.556Z,3.10
2018-03-21T13:32:48.484Z,2.87
2018-03-21T13:35:15.504Z,2.70
2018-03-21T13:37:42.484Z,2.90
2018-03-21T13:40:09.441Z,2.83
2018-03-21T13:42:36.371Z,2.30
2018-03-21T13:45:03.724Z,2.70
2018-03-21T13:47:30.657Z,2.60
2018-03-21T13:49:56.880Z,3.13
2018-03-21T13:52:23.088Z,2.37
2018-03-21T13:54:49.741Z,2.30
2018-03-21T13:57:15.940Z,2.97
2018-03-21T13:59:42.134Z,2.37
2018-03-21T14:02:09.116Z,2.50
2018-03-21T14:04:35.313Z,3.20
2018-03-21T14:07:02.280Z,3.00
2018-03-21T14:09:28.477Z,2.50
2018-03-21T14:11:55.437Z,2.80
2018-03-21T14:14:22.376Z,2.77
2018-03-21T14:16:49.336Z,2.53
2018-03-21T14:19:15.545Z,2.60
2018-03-21T14:21:42.500Z,2.30
2018-03-21T14:24:09.455Z,2.80
2018-03-21T14:26:35.686Z,2.70
2018-03-21T14:29:01.900Z,2.77
2018-03-21T14:31:28.853Z,2.77
2018-03-21T14:33:55.801Z,2.90
2018-03-21T14:36:22.773Z,2.20
2018-03-21T14:38:48.956Z,2.87
2018-03-21T14:41:15.172Z,2.97
2018-03-21T14:43:41.356Z,2.93
2018-03-21T14:46:07.957Z,2.97
2018-03-21T14:48:34.884Z,2.90
2018-03-21T14:51:01.102Z,2.17
2018-03-21T14:53:27.285Z,3.00
2018-03-21T14:55:53.520Z,2.67
2018-03-21T14:58:19.718Z,2.60
2018-03-21T15:00:46.653Z,2.77
2018-03-21T15:03:13.620Z,2.20
2018-03-21T15:05:39.816Z,2.43
2018-03-21T15:10:32.148Z,2.07
2018-03-21T15:12:58.409Z,2.00
2018-03-21T15:15:24.612Z,2.40
2018-03-21T15:17:57.856Z,2.10
2018-03-21T15:20:24.792Z,2.57
2018-03-21T15:22:51.756Z,2.73
2018-03-21T15:25:17.967Z,2.00
2018-03-21T15:27:44.994Z,2.20
2018-03-21T15:30:11.213Z,2.77
2018-03-21T15:32:37.438Z,2.13
2018-03-21T15:35:03.633Z,2.80
2018-03-21T15:37:29.884Z,1.97
2018-03-21T15:39:56.095Z,2.37
2018-03-21T15:42:22.288Z,2.37
2018-03-21T15:44:49.248Z,2.33
2018-03-21T15:47:15.864Z,2.13
2018-03-21T15:49:42.847Z,2.40
2018-03-21T15:52:09.100Z,2.43
2018-03-21T15:54:35.312Z,2.60
2018-03-21T15:57:01.511Z,2.27
2018-03-21T15:59:28.469Z,2.17
2018-03-21T16:01:54.684Z,2.20
2018-03-21T16:04:22.028Z,2.40
2018-03-21T16:06:48.964Z,3.00
2018-03-21T16:09:15.928Z,3.17
2018-03-21T16:11:42.862Z,4.17
2018-03-21T16:14:09.103Z,3.00
2018-03-21T16:16:36.037Z,3.00
2018-03-21T16:19:02.250Z,2.80
2018-03-21T16:21:28.464Z,2.20
2018-03-21T16:23:54.657Z,2.50
2018-03-21T16:26:20.848Z,2.50
2018-03-21T16:28:47.089Z,2.10
2018-03-21T16:31:14.024Z,2.80
2018-03-21T16:33:40.241Z,2.47
2018-03-21T16:36:06.444Z,2.47
2018-03-21T16:38:32.717Z,2.70
2018-03-21T16:40:59.653Z,2.63
2018-03-21T16:43:25.882Z,2.60
2018-03-21T16:45:52.077Z,2.93
2018-03-21T16:48:18.296Z,2.80
2018-03-21T16:50:44.488Z,2.47
2018-03-21T16:53:11.445Z,2.70
2018-03-21T16:55:38.384Z,2.70
2018-03-21T16:58:05.345Z,2.67
2018-03-21T17:00:31.541Z,3.00
2018-03-21T17:02:57.763Z,2.57
2018-03-21T17:05:23.956Z,2.60
2018-03-21T17:07:50.177Z,2.50
2018-03-21T17:10:16.390Z,2.80
2018-03-21T17:12:42.623Z,2.70
2018-03-21T17:15:08.808Z,2.50
2018-03-21T17:17:35.222Z,2.47
2018-03-21T17:20:01.420Z,3.30
2018-03-21T17:22:27.624Z,3.97
2018-03-21T17:24:54.584Z,3.27
2018-03-21T17:27:20.780Z,3.07
2018-03-21T17:29:47.089Z,2.80
2018-03-21T17:32:13.314Z,2.73
2018-03-21T17:34:39.536Z,2.83
2018-03-21T17:37:05.725Z,2.40
2018-03-21T17:39:31.979Z,2.73
2018-03-21T17:41:58.193Z,3.00
2018-03-21T17:44:31.269Z,2.60
2018-03-21T17:46:58.201Z,2.80
2018-03-21T17:49:25.194Z,3.70
2018-03-21T17:51:51.468Z,3.20
2018-03-21T17:54:17.705Z,3.73
2018-03-21T17:56:44.635Z,3.60
2018-03-21T17:59:10.853Z,3.30
2018-03-21T18:01:37.049Z,3.17
2018-03-21T18:04:03.276Z,3.10
2018-03-21T18:06:29.473Z,3.00
2018-03-21T18:08:56.437Z,3.47
2018-03-21T18:11:22.636Z,3.57
2018-03-21T18:13:49.596Z,3.13
2018-03-21T18:16:16.583Z,3.10
2018-03-21T18:18:42.804Z,3.37
2018-03-21T18:21:08.997Z,3.80
2018-03-21T18:23:35.956Z,3.47
2018-03-21T18:26:02.161Z,3.13
2018-03-21T18:28:28.412Z,3.97
2018-03-21T18:30:55.343Z,4.00
2018-03-21T18:33:22.273Z,3.90
2018-03-21T18:35:48.500Z,3.80
2018-03-21T18:38:14.702Z,3.60
2018-03-21T18:40:40.929Z,4.10
2018-03-21T18:43:07.125Z,3.37
2018-03-21T18:45:33.336Z,3.20
2018-03-21T18:48:00.285Z,4.37
2018-03-21T18:50:27.245Z,3.97
2018-03-21T18:52:53.440Z,3.40
2018-03-21T18:55:19.660Z,3.77
2018-03-21T18:57:45.880Z,3.00
2018-03-21T19:00:12.101Z,3.13
2018-03-21T19:02:38.288Z,3.20
2018-03-21T19:05:04.501Z,2.90
2018-03-21T19:07:31.441Z,4.73
2018-03-21T19:09:58.404Z,4.03
2018-03-21T19:12:25.341Z,15.90
2018-03-21T19:14:52.454Z,10.70
2018-03-21T19:17:18.648Z,7.80
2018-03-21T19:19:44.900Z,4.17
2018-03-21T19:22:11.081Z,3.73
2018-03-21T19:24:38.020Z,6.23
2018-03-21T19:27:04.972Z,6.20
2018-03-21T19:29:31.930Z,4.83
2018-03-21T19:31:58.140Z,5.30
2018-03-21T19:34:25.091Z,5.93
2018-03-21T19:36:52.048Z,4.33
2018-03-21T19:39:18.239Z,4.90
2018-03-21T19:41:44.448Z,4.20
2018-03-21T19:44:10.637Z,4.00
2018-03-21T19:46:36.849Z,4.17
2018-03-21T19:49:03.810Z,3.60
2018-03-21T19:51:30.060Z,3.63
2018-03-21T19:53:56.320Z,3.97
2018-03-21T19:56:23.304Z,3.80
2018-03-21T19:58:50.241Z,3.07
2018-03-21T20:01:17.204Z,3.03
2018-03-21T20:03:44.134Z,3.60
2018-03-21T20:06:11.121Z,3.23
2018-03-21T20:08:37.320Z,3.80
2018-03-21T20:11:04.302Z,3.50
2018-03-21T20:13:30.520Z,3.80
2018-03-21T20:15:56.733Z,2.60
2018-03-21T20:18:22.943Z,4.10
2018-03-21T20:20:49.877Z,3.70
2018-03-21T20:23:16.120Z,3.03
2018-03-21T20:25:43.053Z,3.83
2018-03-21T20:28:09.245Z,3.00
2018-03-21T20:30:35.481Z,3.17
2018-03-21T20:33:01.673Z,3.20
2018-03-21T20:35:27.889Z,3.67
2018-03-21T20:37:54.816Z,4.00
2018-03-21T20:40:21.122Z,3.70
2018-03-21T20:42:47.312Z,4.87
2018-03-21T20:45:13.538Z,3.63
2018-03-21T20:47:39.732Z,4.30
2018-03-21T20:50:05.981Z,4.80
2018-03-21T20:52:32.929Z,5.57
2018-03-21T20:54:59.885Z,4.67
2018-03-21T20:57:26.080Z,5.07
2018-03-21T20:59:52.304Z,5.37
2018-03-21T21:02:18.502Z,5.50
2018-03-21T21:04:44.712Z,5.50
2018-03-21T21:07:10.917Z,5.30
2018-03-21T21:09:37.888Z,5.30
2018-03-21T21:12:04.080Z,5.47
2018-03-21T21:14:31.020Z,5.73
2018-03-21T21:16:58.017Z,6.10
2018-03-21T21:19:24.220Z,5.77
2018-03-21T21:21:50.437Z,6.20
2018-03-21T21:24:17.365Z,6.87
2018-03-21T21:26:44.320Z,6.30
2018-03-21T21:29:11.285Z,7.20
2018-03-21T21:31:37.504Z,6.33
2018-03-21T21:34:03.713Z,6.03
2018-03-21T21:36:29.933Z,6.83
2018-03-21T21:38:56.884Z,5.20
2018-03-21T21:41:23.113Z,6.47
2018-03-21T21:43:49.317Z,6.80
2018-03-21T21:46:15.532Z,7.20
2018-03-21T21:48:41.747Z,5.77
2018-03-21T21:51:07.979Z,7.27
2018-03-21T21:53:34.176Z,6.73
2018-03-21T21:56:01.147Z,6.30
2018-03-21T21:58:27.348Z,6.70
2018-03-21T22:00:54.300Z,7.17
2018-03-21T22:03:21.240Z,5.83
2018-03-21T22:05:48.224Z,4.67
2018-03-21T22:08:14.487Z,4.90
2018-03-21T22:10:40.672Z,6.23
2018-03-21T22:13:06.890Z,6.03
2018-03-21T22:15:33.825Z,6.00
2018-03-21T22:18:00.786Z,4.87
2018-03-21T22:20:26.977Z,5.73
2018-03-21T22:22:53.204Z,6.00
2018-03-21T22:25:19.399Z,5.80
2018-03-21T22:27:45.612Z,6.07
2018-03-21T22:30:11.823Z,5.10
2018-03-21T22:32:38.780Z,6.03
2018-03-21T22:35:04.972Z,5.27
2018-03-21T22:37:31.192Z,4.43
2018-03-21T22:39:57.456Z,4.97
2018-03-21T22:42:24.412Z,4.30
2018-03-21T22:44:50.600Z,4.07
2018-03-21T22:47:16.816Z,6.33
2018-03-21T22:49:43.017Z,5.77
2018-03-21T22:52:09.224Z,4.90
2018-03-21T22:54:35.417Z,5.70
2018-03-21T22:57:01.646Z,5.30
2018-03-21T22:59:28.576Z,5.10
2018-03-21T23:01:54.791Z,5.80
2018-03-21T23:04:21.032Z,5.03
2018-03-21T23:06:47.257Z,6.13
2018-03-21T23:09:13.457Z,6.40
2018-03-21T23:11:39.672Z,5.40
2018-03-21T23:14:05.881Z,3.90
2018-03-21T23:16:32.837Z,6.63
2018-03-21T23:18:59.767Z,6.20
2018-03-21T23:21:26.968Z,6.63
2018-03-21T23:23:53.173Z,6.30
2018-03-21T23:26:19.387Z,6.07
2018-03-21T23:28:46.333Z,6.50
2018-03-21T23:31:13.312Z,3.10
2018-03-21T23:33:39.499Z,4.40
2018-03-21T23:36:06.441Z,6.17
2018-03-21T23:38:32.674Z,6.00
2018-03-21T23:40:59.614Z,6.30
2018-03-21T23:43:26.585Z,6.05
2018-03-21T23:45:53.129Z,4.30
2018-03-21T23:48:19.609Z,4.83
2018-03-21T23:50:45.801Z,6.95
2018-03-21T23:53:11.997Z,5.30
2018-03-21T23:55:45.913Z,5.93
2018-03-21T23:58:12.857Z,5.90
